Time;durP1;ratioP1;P1;durP2;ratioP2;P2;SDS_P1;SDS_P2;PMS_P1;PMS_P2;Temp;Humidity;BMP_temperature;BMP_pressure;BME280_temperature;BME280_humidity;BME280_pressure;Samples;Min_cycle;Max_cycle;Signal;HPM_P1;HPM_P2
2023/05/26 00:02:15;;;;;;;23.25;3.67;;;;;;;-143.48;77.01;118439.88;5055193;28;20021;-35
2023/05/26 00:04:43;;;;;;;36.83;4.85;;;;;;;-143.48;77.01;118439.88;5055188;28;20047;-35
2023/05/26 00:07:08;;;;;;;27.88;4.55;;;;;;;-143.48;77.28;118439.88;5055036;28;20025;-36
2023/05/26 00:09:34;;;;;;;29.70;3.90;;;;;;;-143.48;78.36;118439.88;5054741;28;20094;-37
2023/05/26 00:12:01;;;;;;;27.80;4.40;;;;;;;-143.48;77.48;118439.88;5055010;28;20025;-36
2023/05/26 00:14:26;;;;;;;24.80;3.95;;;;;;;-143.48;77.20;118439.88;5054994;28;20031;-37
2023/05/26 00:16:53;;;;;;;20.10;3.88;;;;;;;-143.48;77.41;118439.88;5055009;28;20082;-37
2023/05/26 00:19:19;;;;;;;22.60;3.97;;;;;;;-143.48;77.22;118439.88;5036506;28;20029;-36
2023/05/26 00:21:45;;;;;;;23.13;4.18;;;;;;;-143.48;76.96;118439.88;5054779;28;20029;-36
2023/05/26 00:24:10;;;;;;;28.50;4.30;;;;;;;-143.48;77.80;118439.88;5054747;28;20031;-37
2023/05/26 00:26:36;;;;;;;27.83;4.20;;;;;;;-143.48;77.57;118439.88;5055125;28;20017;-35
2023/05/26 00:29:02;;;;;;;28.77;4.47;;;;;;;-143.48;76.82;118439.88;5054523;28;20104;-36
2023/05/26 00:31:28;;;;;;;27.52;4.03;;;;;;;-143.48;76.80;118439.88;5054337;28;20024;-36
2023/05/26 00:33:54;;;;;;;34.50;4.63;;;;;;;-143.48;77.68;118439.88;5054212;28;20066;-36
2023/05/26 00:36:19;;;;;;;29.77;4.45;;;;;;;-143.48;78.24;118439.88;5054197;28;20421;-36
2023/05/26 00:38:44;;;;;;;29.27;4.18;;;;;;;-143.48;78.48;118439.88;5054650;28;20040;-36
2023/05/26 00:41:10;;;;;;;28.23;4.63;;;;;;;-143.48;78.10;118439.88;5054072;28;20021;-36
2023/05/26 00:43:35;;;;;;;20.45;3.53;;;;;;;-143.48;78.62;118439.88;5054392;28;20048;-34
2023/05/26 00:46:00;;;;;;;29.20;4.63;;;;;;;-143.48;77.85;118439.88;5054360;28;20021;-34
2023/05/26 00:48:26;;;;;;;25.15;4.07;;;;;;;-143.48;77.85;118439.88;5054287;28;20033;-36
2023/05/26 00:50:51;;;;;;;36.47;4.50;;;;;;;-143.48;78.00;118439.88;5053898;28;20476;-36
2023/05/26 00:53:17;;;;;;;34.97;5.10;;;;;;;-143.48;78.10;118439.88;5054177;28;20025;-37
2023/05/26 00:55:44;;;;;;;26.27;4.10;;;;;;;-143.48;78.33;118439.88;5036111;28;20057;-34
2023/05/26 00:58:10;;;;;;;30.83;4.57;;;;;;;-143.48;78.30;118439.88;5036043;28;20049;-37
2023/05/26 01:00:36;;;;;;;22.83;4.07;;;;;;;-143.48;78.41;118439.88;5053727;28;20063;-35
2023/05/26 01:03:04;;;;;;;30.70;4.68;;;;;;;-143.48;79.58;118439.88;5053935;28;20112;-36
2023/05/26 01:05:29;;;;;;;31.80;5.20;;;;;;;-143.48;78.47;118439.88;5053835;28;20036;-37
2023/05/26 01:07:54;;;;;;;28.27;4.18;;;;;;;-143.48;79.98;118439.88;5053664;28;20025;-37
2023/05/26 01:10:20;;;;;;;30.67;4.53;;;;;;;-143.48;79.53;118439.88;5053938;28;20021;-36
2023/05/26 01:12:56;;;;;;;24.15;3.97;;;;;;;-143.48;79.15;118439.88;5053769;28;20077;-37
2023/05/26 01:15:26;;;;;;;26.25;4.18;;;;;;;-143.48;80.22;118439.88;5053915;28;20024;-37
2023/05/26 01:18:03;;;;;;;27.30;3.92;;;;;;;-143.48;79.23;118439.88;5036451;28;20452;-37
2023/05/26 01:20:33;;;;;;;26.55;3.70;;;;;;;-143.48;79.38;118439.88;5053722;28;20033;-37
2023/05/26 01:23:27;;;;;;;27.95;4.22;;;;;;;-143.48;79.29;118439.88;5053954;28;20091;-36
2023/05/26 01:26:20;;;;;;;27.17;4.55;;;;;;;-143.48;80.54;118439.88;5053485;28;20035;-36
2023/05/26 01:28:50;;;;;;;25.77;4.30;;;;;;;-143.48;80.12;118439.88;5054506;28;20032;-37
2023/05/26 01:31:16;;;;;;;24.52;4.10;;;;;;;-143.48;80.45;118439.88;5053300;28;20029;-37
2023/05/26 01:33:41;;;;;;;26.48;4.55;;;;;;;-143.48;79.93;118439.88;5053263;28;20353;-37
2023/05/26 01:36:06;;;;;;;23.98;4.07;;;;;;;-143.48;80.16;118439.88;5053670;28;20032;-37
2023/05/26 01:38:32;;;;;;;37.00;4.22;;;;;;;-143.48;80.83;118439.88;5053502;28;20056;-37
2023/05/26 01:41:10;;;;;;;25.45;4.40;;;;;;;-143.48;80.58;118439.88;5053234;28;20036;-36
2023/05/26 01:43:43;;;;;;;22.30;4.10;;;;;;;-143.48;81.02;118439.88;5053534;28;20490;-37
2023/05/26 01:46:23;;;;;;;20.80;3.90;;;;;;;-143.48;82.13;118439.88;5053187;28;20411;-37
2023/05/26 01:48:50;;;;;;;30.63;4.47;;;;;;;-143.48;80.78;118439.88;5053756;28;20029;-37
2023/05/26 01:51:17;;;;;;;30.77;4.50;;;;;;;-143.48;81.09;118439.88;5053478;28;20017;-37
2023/05/26 01:53:44;;;;;;;24.42;3.92;;;;;;;-143.48;81.34;118439.88;5053373;28;20486;-37
2023/05/26 01:56:11;;;;;;;26.75;4.32;;;;;;;-143.48;81.99;118439.88;5053649;28;20021;-37
2023/05/26 01:58:38;;;;;;;30.60;4.25;;;;;;;-143.48;82.23;118439.88;5053021;28;20115;-37
2023/05/26 02:01:03;;;;;;;32.28;4.13;;;;;;;-143.48;82.40;118439.88;5053182;28;20025;-36
2023/05/26 02:03:29;;;;;;;24.52;4.15;;;;;;;-143.48;82.45;118439.88;5035195;28;20087;-37
2023/05/26 02:05:54;;;;;;;31.08;4.60;;;;;;;-143.48;82.62;118439.88;5053558;28;20048;-37
2023/05/26 02:08:21;;;;;;;33.10;4.40;;;;;;;-143.48;83.56;118439.88;5053181;28;20028;-37
2023/05/26 02:10:46;;;;;;;28.63;4.72;;;;;;;-143.48;83.40;118439.88;5053261;28;20052;-37
2023/05/26 02:13:12;;;;;;;26.58;4.60;;;;;;;-143.48;83.46;118439.88;5053736;28;20410;-37
2023/05/26 02:15:37;;;;;;;27.48;5.00;;;;;;;-143.48;82.91;118439.88;5052936;28;20099;-36
2023/05/26 02:18:03;;;;;;;23.77;4.15;;;;;;;-143.48;83.08;118439.88;5054873;28;20079;-36
2023/05/26 02:20:28;;;;;;;35.42;5.68;;;;;;;-143.48;82.83;118439.88;5056867;28;20035;-37
2023/05/26 02:22:53;;;;;;;26.00;4.20;;;;;;;-143.48;82.93;118439.88;5056729;28;20112;-37
2023/05/26 02:25:19;;;;;;;32.20;4.22;;;;;;;-143.48;83.77;118439.88;5057281;28;20033;-36
2023/05/26 02:27:44;;;;;;;25.70;4.38;;;;;;;-143.48;83.90;118439.88;5056670;28;20021;-36
2023/05/26 02:30:10;;;;;;;26.67;4.40;;;;;;;-143.48;83.20;118439.88;5056738;28;20093;-35
2023/05/26 02:32:36;;;;;;;25.35;3.53;;;;;;;-143.48;83.37;118439.88;5056492;28;20029;-37
2023/05/26 02:35:03;;;;;;;25.45;4.10;;;;;;;-143.48;84.06;118439.88;5056639;28;20052;-37
2023/05/26 02:37:29;;;;;;;26.70;4.40;;;;;;;-143.48;83.28;118439.88;5056764;28;20134;-37
2023/05/26 02:39:55;;;;;;;27.65;4.15;;;;;;;-143.48;83.87;118439.88;5038512;28;20033;-34
2023/05/26 02:42:20;;;;;;;27.02;4.30;;;;;;;-143.48;83.53;118439.88;5056325;28;20114;-36
2023/05/26 02:44:45;;;;;;;32.75;4.88;;;;;;;-143.48;83.88;118439.88;5056582;28;20106;-37
2023/05/26 02:47:11;;;;;;;22.75;3.92;;;;;;;-143.48;84.27;118439.88;5056345;28;20021;-37
2023/05/26 02:49:36;;;;;;;26.02;4.80;;;;;;;-143.48;84.28;118439.88;5056843;28;20025;-37
2023/05/26 02:52:02;;;;;;;24.75;4.47;;;;;;;-143.48;84.23;118439.88;5038225;28;20020;-37
2023/05/26 02:54:27;;;;;;;24.80;3.92;;;;;;;-143.48;83.83;118439.88;5056481;28;20021;-37
2023/05/26 02:56:52;;;;;;;28.88;4.68;;;;;;;-143.48;84.07;118439.88;5056161;28;20426;-35
2023/05/26 02:59:18;;;;;;;22.05;4.20;;;;;;;-143.48;84.41;118439.88;5056113;28;20029;-37
2023/05/26 03:01:43;;;;;;;26.17;3.83;;;;;;;-143.48;83.88;118439.88;5056382;28;20120;-37
2023/05/26 03:04:08;;;;;;;31.20;4.03;;;;;;;-143.48;83.99;118439.88;5056725;28;20041;-35
2023/05/26 03:06:35;;;;;;;28.85;4.38;;;;;;;-143.48;83.80;118439.88;5056007;28;20479;-36
2023/05/26 03:09:01;;;;;;;25.17;4.15;;;;;;;-143.48;84.27;118439.88;5056213;28;20451;-37
2023/05/26 03:11:26;;;;;;;23.42;3.90;;;;;;;-143.48;84.34;118439.88;5055786;28;20051;-36
2023/05/26 03:13:52;;;;;;;28.27;4.00;;;;;;;-143.48;84.45;118439.88;5056032;28;20104;-37
2023/05/26 03:16:19;;;;;;;30.45;4.20;;;;;;;-143.48;84.29;118439.88;5055649;28;20068;-37
2023/05/26 03:18:44;;;;;;;25.00;4.43;;;;;;;-143.48;84.82;118439.88;5055993;28;20033;-36
2023/05/26 03:21:10;;;;;;;26.73;4.38;;;;;;;-143.48;85.24;118439.88;5055648;28;20051;-37
2023/05/26 03:23:35;;;;;;;24.33;4.32;;;;;;;-143.48;84.26;118439.88;5055623;28;20108;-37
2023/05/26 03:26:00;;;;;;;24.27;3.92;;;;;;;-143.48;84.46;118439.88;5055459;28;20028;-35
2023/05/26 03:28:26;;;;;;;21.02;3.65;;;;;;;-143.48;84.63;118439.88;5055552;28;20054;-37
2023/05/26 03:30:52;;;;;;;33.42;4.55;;;;;;;-143.48;84.74;118439.88;5055567;28;20025;-37
2023/05/26 03:33:17;;;;;;;18.75;3.92;;;;;;;-143.48;83.91;118439.88;5055608;28;20063;-37
2023/05/26 03:35:43;;;;;;;22.55;3.88;;;;;;;-143.48;85.13;118439.88;5055825;28;20041;-37
2023/05/26 03:38:08;;;;;;;25.45;4.13;;;;;;;-143.48;85.31;118439.88;5055384;28;20396;-37
2023/05/26 03:40:34;;;;;;;26.90;5.40;;;;;;;-143.48;85.02;118439.88;5055526;28;20028;-37
2023/05/26 03:43:01;;;;;;;23.70;3.90;;;;;;;-143.48;84.61;118439.88;5055585;28;20120;-37
2023/05/26 03:45:26;;;;;;;34.13;4.32;;;;;;;-143.48;84.87;118439.88;5055182;28;20021;-37
2023/05/26 03:47:51;;;;;;;27.70;4.53;;;;;;;-143.48;85.34;118439.88;5055085;28;20036;-37
2023/05/26 03:50:17;;;;;;;33.63;4.57;;;;;;;-143.48;85.06;118439.88;5055453;28;20032;-36
2023/05/26 03:52:42;;;;;;;27.70;4.40;;;;;;;-143.48;84.81;118439.88;5055358;28;20029;-35
2023/05/26 03:55:10;;;;;;;27.27;4.55;;;;;;;-143.48;85.00;118439.88;5055055;28;20028;-37
2023/05/26 03:57:36;;;;;;;36.60;5.50;;;;;;;-143.48;84.00;118439.88;5055222;28;20028;-35
2023/05/26 04:00:03;;;;;;;29.88;4.70;;;;;;;-143.48;84.66;118439.88;5055374;28;20522;-36
2023/05/26 04:02:29;;;;;;;21.35;4.03;;;;;;;-143.48;84.81;118439.88;5055206;28;20053;-37
2023/05/26 04:04:54;;;;;;;27.50;4.25;;;;;;;-143.48;84.60;118439.88;5055158;28;20052;-34
2023/05/26 04:07:20;;;;;;;25.40;4.53;;;;;;;-143.48;83.27;118439.88;5055012;28;20025;-36
2023/05/26 04:09:45;;;;;;;19.33;3.85;;;;;;;-143.48;84.16;118439.88;5054992;28;20075;-37
2023/05/26 04:12:10;;;;;;;22.88;4.22;;;;;;;-143.48;83.25;118439.88;5054725;28;20051;-37
2023/05/26 04:14:36;;;;;;;26.38;4.25;;;;;;;-143.48;83.54;118439.88;5054699;28;20021;-37
2023/05/26 04:17:01;;;;;;;18.88;4.20;;;;;;;-143.48;83.35;118439.88;5054532;28;20495;-37
2023/05/26 04:19:26;;;;;;;26.00;4.50;;;;;;;-143.48;82.50;118439.88;5054504;28;20057;-37
2023/05/26 04:21:52;;;;;;;22.17;4.18;;;;;;;-143.48;82.41;118439.88;5054720;28;20037;-37
2023/05/26 04:24:17;;;;;;;30.52;4.47;;;;;;;-143.48;82.57;118439.88;5054684;28;20029;-36
2023/05/26 04:26:43;;;;;;;33.70;4.25;;;;;;;-143.48;82.71;118439.88;5054757;28;20095;-36
2023/05/26 04:29:09;;;;;;;32.92;4.70;;;;;;;-143.48;81.16;118439.88;5054666;28;20025;-37
2023/05/26 04:31:40;;;;;;;29.00;4.47;;;;;;;-143.48;80.97;118439.88;5054666;28;20092;-34
2023/05/26 04:34:06;;;;;;;31.42;5.07;;;;;;;-143.48;80.11;118439.88;5054510;28;20039;-35
2023/05/26 04:36:32;;;;;;;27.67;4.88;;;;;;;-143.48;81.20;118439.88;5036475;28;20021;-36
2023/05/26 04:38:58;;;;;;;23.35;4.57;;;;;;;-143.48;80.82;118439.88;5054522;28;20067;-37
2023/05/26 04:41:24;;;;;;;25.52;4.15;;;;;;;-143.48;80.03;118439.88;5053764;28;20456;-34
2023/05/26 04:43:50;;;;;;;37.15;4.60;;;;;;;-143.48;81.52;118439.88;5054130;28;20063;-37
2023/05/26 04:46:16;;;;;;;28.58;4.53;;;;;;;-143.48;80.84;118439.88;5036086;28;20063;-36
2023/05/26 04:48:42;;;;;;;33.15;4.75;;;;;;;-143.48;79.38;118439.88;5054366;28;20474;-36
2023/05/26 04:51:07;;;;;;;31.90;4.78;;;;;;;-143.48;79.17;118439.88;5054345;28;20016;-35
2023/05/26 04:53:33;;;;;;;29.65;4.50;;;;;;;-143.48;78.70;118439.88;5054146;28;20460;-36
2023/05/26 04:56:00;;;;;;;32.28;4.95;;;;;;;-143.48;78.88;118439.88;5053954;28;20036;-37
2023/05/26 04:58:26;;;;;;;29.75;4.22;;;;;;;-143.48;77.96;118439.88;5054092;28;20021;-35
2023/05/26 05:00:52;;;;;;;23.83;5.07;;;;;;;-143.48;77.55;118439.88;5053892;28;20491;-36
2023/05/26 05:03:17;;;;;;;20.88;4.05;;;;;;;-143.48;78.23;118439.88;5054037;28;20025;-37
2023/05/26 05:05:43;;;;;;;30.95;4.50;;;;;;;-143.48;77.35;118439.88;5053953;28;20029;-37
2023/05/26 05:08:08;;;;;;;28.45;4.90;;;;;;;-143.48;77.78;118439.88;5054263;28;20438;-37
2023/05/26 05:10:33;;;;;;;27.13;4.32;;;;;;;-143.48;76.93;118439.88;5053917;28;20376;-36
2023/05/26 05:12:59;;;;;;;27.42;4.43;;;;;;;-143.48;75.71;118439.88;5054138;28;20379;-33
2023/05/26 05:15:25;;;;;;;27.10;4.22;;;;;;;-143.48;75.19;118439.88;5053232;28;20387;-36
2023/05/26 05:17:50;;;;;;;29.15;4.97;;;;;;;-143.48;75.38;118439.88;5053826;28;20031;-37
2023/05/26 05:20:15;;;;;;;26.75;4.55;;;;;;;-143.48;75.13;118439.88;5053735;28;20052;-34
2023/05/26 05:22:41;;;;;;;25.88;4.85;;;;;;;-143.48;74.54;118439.88;5052744;28;20128;-37
2023/05/26 05:25:06;;;;;;;24.20;4.05;;;;;;;-143.48;74.75;118439.88;5053360;28;20017;-36
2023/05/26 05:27:32;;;;;;;27.33;4.45;;;;;;;-143.48;75.70;118439.88;5053405;28;20029;-36
2023/05/26 05:29:57;;;;;;;18.65;4.22;;;;;;;-143.48;74.38;118439.88;5053587;28;20013;-37
2023/05/26 05:32:22;;;;;;;25.77;4.47;;;;;;;-143.48;73.93;118439.88;5053325;28;20082;-36
2023/05/26 05:34:48;;;;;;;23.63;4.53;;;;;;;-143.48;73.43;118439.88;5053629;28;20074;-36
2023/05/26 05:37:13;;;;;;;27.48;4.20;;;;;;;-143.48;72.08;118439.88;5053052;28;20472;-37
2023/05/26 05:39:38;;;;;;;24.70;4.30;;;;;;;-143.48;71.89;118439.88;5052551;28;20025;-37
2023/05/26 05:42:04;;;;;;;30.88;4.78;;;;;;;-143.48;72.65;118439.88;5053398;28;20024;-34
2023/05/26 05:44:30;;;;;;;26.90;4.43;;;;;;;-143.48;70.76;118439.88;5053441;28;20063;-37
2023/05/26 05:46:55;;;;;;;27.83;4.65;;;;;;;-143.48;62.97;118439.88;5053217;28;20357;-37
2023/05/26 05:49:20;;;;;;;30.58;4.93;;;;;;;-143.48;54.29;118439.88;5053808;28;20024;-37
2023/05/26 05:51:46;;;;;;;26.92;4.85;;;;;;;-143.48;53.85;118439.88;5054277;28;20017;-37
2023/05/26 05:54:11;;;;;;;27.25;4.97;;;;;;;-143.48;52.36;118439.88;5057880;28;20120;-35
2023/05/26 05:56:36;;;;;;;23.45;4.57;;;;;;;-143.48;50.73;118439.88;5057266;28;20025;-35
2023/05/26 05:59:01;;;;;;;26.38;4.97;;;;;;;-143.48;47.60;118439.88;5056993;28;20056;-36
2023/05/26 06:01:27;;;;;;;22.35;4.47;;;;;;;-143.48;47.38;118439.88;5057475;28;20028;-34
2023/05/26 06:03:52;;;;;;;25.92;4.75;;;;;;;-143.48;47.46;118439.88;5057405;28;20108;-37
2023/05/26 06:06:18;;;;;;;26.60;5.38;;;;;;;-143.48;46.46;118439.88;5057153;28;20035;-37
2023/05/26 06:08:43;;;;;;;22.60;5.10;;;;;;;-143.48;45.89;118439.88;5057586;28;20021;-37
2023/05/26 06:11:08;;;;;;;22.33;4.70;;;;;;;-143.48;46.62;118439.88;5056935;28;20024;-37
2023/05/26 06:13:34;;;;;;;29.42;4.80;;;;;;;-143.48;45.43;118439.88;5057453;28;20345;-34
2023/05/26 06:15:59;;;;;;;26.25;5.38;;;;;;;-143.48;45.74;118439.88;5057154;28;20415;-37
2023/05/26 06:18:25;;;;;;;21.95;4.63;;;;;;;-143.48;47.46;118439.88;5057143;28;20472;-36
2023/05/26 06:20:50;;;;;;;28.15;5.25;;;;;;;-143.48;48.24;118439.88;5056951;28;20025;-38
2023/05/26 06:23:16;;;;;;;23.58;4.95;;;;;;;-143.48;46.58;118439.88;5057096;28;20100;-36
2023/05/26 06:25:42;;;;;;;32.78;5.45;;;;;;;-143.48;47.74;118439.88;5056933;28;20021;-37
2023/05/26 06:28:07;;;;;;;22.27;4.68;;;;;;;-143.48;46.29;118439.88;5057019;28;20027;-37
2023/05/26 06:30:32;;;;;;;22.60;4.57;;;;;;;-143.48;47.40;118439.88;5056363;28;20502;-36
2023/05/26 06:32:58;;;;;;;24.90;4.50;;;;;;;-143.48;48.06;118439.88;5056922;28;20017;-37
2023/05/26 06:35:23;;;;;;;28.10;5.13;;;;;;;-143.48;49.63;118439.88;5056550;28;20507;-36
2023/05/26 06:37:48;;;;;;;25.27;4.68;;;;;;;-143.48;52.25;118439.88;5056855;28;20111;-36
2023/05/26 06:40:14;;;;;;;26.98;4.57;;;;;;;-143.48;51.96;118439.88;5057005;28;20025;-37
2023/05/26 06:42:39;;;;;;;22.88;4.75;;;;;;;-143.48;48.71;118439.88;5056503;28;20021;-35
2023/05/26 06:45:05;;;;;;;23.00;4.30;;;;;;;-143.48;48.48;118439.88;5056404;28;20025;-36
2023/05/26 06:47:30;;;;;;;20.50;4.28;;;;;;;-143.48;49.20;118439.88;5056739;28;20131;-36
2023/05/26 06:49:56;;;;;;;32.13;5.03;;;;;;;-143.48;50.56;118439.88;5056051;28;20017;-35
2023/05/26 06:52:21;;;;;;;30.00;4.68;;;;;;;-143.48;54.22;118439.88;5056444;28;20485;-36
2023/05/26 06:54:46;;;;;;;24.65;4.05;;;;;;;-143.48;56.88;118439.88;5056320;28;20467;-36
2023/05/26 06:57:13;;;;;;;20.10;3.85;;;;;;;-143.48;49.38;118439.88;5056069;28;20064;-37
2023/05/26 06:59:38;;;;;;;27.23;4.63;;;;;;;-143.48;51.35;118439.88;5056201;28;20025;-37
2023/05/26 07:02:04;;;;;;;21.65;4.53;;;;;;;-143.48;55.76;118439.88;5056094;28;20547;-34
2023/05/26 07:04:29;;;;;;;26.25;4.53;;;;;;;-143.48;55.91;118439.88;5055533;28;20043;-36
2023/05/26 07:06:54;;;;;;;30.73;4.90;;;;;;;-143.48;55.11;118439.88;5056025;28;20422;-37
2023/05/26 07:09:19;;;;;;;24.23;4.75;;;;;;;-143.48;52.70;118439.88;5055939;28;20055;-37
2023/05/26 07:11:45;;;;;;;26.15;4.75;;;;;;;-143.48;51.43;118439.88;5056272;28;20117;-36
2023/05/26 07:14:10;;;;;;;22.33;4.18;;;;;;;-143.48;50.24;118439.88;5055654;28;20472;-35
2023/05/26 07:16:35;;;;;;;22.95;4.50;;;;;;;-143.48;49.65;118439.88;5055648;28;20102;-37
2023/05/26 07:19:01;;;;;;;17.30;4.03;;;;;;;-143.48;50.73;118439.88;5055910;28;20029;-35
2023/05/26 07:21:27;;;;;;;25.20;4.32;;;;;;;-143.48;52.63;118439.88;5055724;28;20467;-34
2023/05/26 07:23:53;;;;;;;30.33;4.88;;;;;;;-143.48;49.17;118439.88;5055704;28;20108;-34
2023/05/26 07:26:18;;;;;;;23.98;4.75;;;;;;;-143.48;47.00;118439.88;5055858;28;20100;-35
2023/05/26 07:28:44;;;;;;;22.25;4.50;;;;;;;-143.48;49.08;118439.88;5056126;28;20066;-35
2023/05/26 07:31:09;;;;;;;19.00;3.90;;;;;;;-143.48;48.63;118439.88;5055994;28;20032;-35
2023/05/26 07:33:35;;;;;;;23.52;4.40;;;;;;;-143.48;49.24;118439.88;5055624;28;20052;-35
2023/05/26 07:36:00;;;;;;;19.65;4.05;;;;;;;-143.48;48.84;118439.88;5055374;28;20060;-35
2023/05/26 07:38:26;;;;;;;27.42;4.82;;;;;;;-143.48;49.69;118439.88;5055309;28;20056;-36
2023/05/26 07:40:51;;;;;;;26.00;4.88;;;;;;;-143.48;48.60;118439.88;5055586;28;20021;-36
2023/05/26 07:43:16;;;;;;;19.98;4.10;;;;;;;-143.48;50.39;118439.88;5055586;28;20025;-37
2023/05/26 07:45:42;;;;;;;17.70;3.92;;;;;;;-143.48;49.90;118439.88;5055223;28;20036;-37
2023/05/26 07:48:07;;;;;;;25.00;4.32;;;;;;;-143.48;50.28;118439.88;5055427;28;20041;-34
2023/05/26 07:50:33;;;;;;;24.52;4.57;;;;;;;-143.48;48.58;118439.88;5055123;28;20063;-35
2023/05/26 07:52:58;;;;;;;20.55;3.92;;;;;;;-143.48;49.54;118439.88;5055184;28;20056;-35
2023/05/26 07:55:24;;;;;;;21.95;4.25;;;;;;;-143.48;48.66;118439.88;5055045;28;20025;-36
2023/05/26 07:57:49;;;;;;;22.95;3.95;;;;;;;-143.48;49.71;118439.88;5055223;28;20444;-36
2023/05/26 08:00:15;;;;;;;25.10;4.60;;;;;;;-143.48;48.55;118439.88;5054762;28;20504;-35
2023/05/26 08:02:41;;;;;;;20.35;4.20;;;;;;;-143.48;48.30;118439.88;5055169;28;20017;-35
2023/05/26 08:05:07;;;;;;;24.13;4.35;;;;;;;-143.48;46.02;118439.88;5054905;28;20112;-37
2023/05/26 08:07:32;;;;;;;22.48;3.90;;;;;;;-143.48;46.46;118439.88;5054858;28;20559;-36
2023/05/26 08:09:57;;;;;;;18.33;4.03;;;;;;;-143.48;45.02;118439.88;5055065;28;20376;-34
2023/05/26 08:12:23;;;;;;;23.00;4.55;;;;;;;-143.48;45.87;118439.88;5053589;28;20507;-38
2023/05/26 08:14:49;;;;;;;24.52;4.32;;;;;;;-143.48;44.56;118439.88;5051899;28;20119;-37
2023/05/26 08:17:14;;;;;;;24.77;4.75;;;;;;;-143.48;44.81;118439.88;5051890;28;20488;-36
2023/05/26 08:19:40;;;;;;;24.90;4.53;;;;;;;-143.48;43.97;118439.88;5052957;28;20139;-34
2023/05/26 08:22:05;;;;;;;23.42;4.20;;;;;;;-143.48;44.32;118439.88;5052570;28;20580;-36
2023/05/26 08:24:30;;;;;;;24.17;4.47;;;;;;;-143.48;46.27;118439.88;5052709;28;20105;-36
2023/05/26 08:26:56;;;;;;;26.63;4.47;;;;;;;-143.48;45.19;118439.88;5051147;28;20021;-37
2023/05/26 08:29:22;;;;;;;19.77;4.47;;;;;;;-143.48;44.50;118439.88;5052341;28;20017;-36
2023/05/26 08:31:48;;;;;;;21.50;4.53;;;;;;;-143.48;43.65;118439.88;5052890;28;20060;-37
2023/05/26 08:34:13;;;;;;;25.15;4.55;;;;;;;-143.48;43.37;118439.88;5052034;28;20533;-37
2023/05/26 08:36:39;;;;;;;18.52;4.28;;;;;;;-143.48;45.28;118439.88;5051545;28;20028;-34
2023/05/26 08:39:04;;;;;;;20.23;4.40;;;;;;;-143.48;46.20;118439.88;5052099;28;20017;-36
2023/05/26 08:41:39;;;;;;;18.65;4.40;;;;;;;-143.48;44.61;118439.88;5052341;28;20051;-35
2023/05/26 08:44:05;;;;;;;25.90;4.43;;;;;;;-143.48;43.44;118439.88;5051931;28;20106;-38
2023/05/26 08:46:32;;;;;;;26.05;4.75;;;;;;;-143.48;42.01;118439.88;5052310;28;20107;-34
2023/05/26 08:48:58;;;;;;;19.55;4.25;;;;;;;-143.48;43.27;118439.88;5053884;28;20032;-37
2023/05/26 08:51:23;;;;;;;20.70;4.55;;;;;;;-143.48;43.76;118439.88;5054103;28;20460;-35
2023/05/26 08:53:49;;;;;;;21.48;4.00;;;;;;;-143.48;41.85;118439.88;5053482;28;20535;-35
2023/05/26 08:56:15;;;;;;;19.10;4.30;;;;;;;-143.48;43.52;118439.88;5053771;28;20391;-34
2023/05/26 08:58:43;;;;;;;21.42;4.35;;;;;;;-143.48;41.93;118439.88;5053415;28;20029;-36
2023/05/26 09:01:09;;;;;;;21.70;4.22;;;;;;;-143.48;42.37;118439.88;5053654;28;20017;-37
2023/05/26 09:03:35;;;;;;;17.77;3.85;;;;;;;-143.48;42.56;118439.88;5054418;28;20356;-35
2023/05/26 09:06:00;;;;;;;20.55;4.55;;;;;;;-143.48;43.30;118439.88;5051897;28;20024;-35
2023/05/26 09:08:26;;;;;;;18.45;4.07;;;;;;;-143.48;42.44;118439.88;5051854;28;20371;-37
2023/05/26 09:10:51;;;;;;;20.23;4.15;;;;;;;-143.48;43.38;118439.88;5051718;28;20078;-34
2023/05/26 09:13:21;;;;;;;20.67;4.68;;;;;;;-143.48;43.59;118439.88;5051685;28;20028;-34
2023/05/26 09:15:51;;;;;;;21.23;4.50;;;;;;;-143.48;43.11;118439.88;5051733;28;20045;-36
2023/05/26 09:18:17;;;;;;;18.45;4.22;;;;;;;-143.48;41.30;118439.88;5051998;28;20405;-37
2023/05/26 09:20:45;;;;;;;20.15;4.32;;;;;;;-143.48;42.62;118439.88;5052949;28;20074;-38
2023/05/26 09:23:11;;;;;;;17.20;4.28;;;;;;;-143.48;42.04;118439.88;5053520;28;20044;-34
2023/05/26 09:25:38;;;;;;;19.25;4.45;;;;;;;-143.48;41.24;118439.88;5052058;28;20029;-36
2023/05/26 09:28:05;;;;;;;22.17;4.25;;;;;;;-143.48;43.38;118439.88;5051485;28;20027;-34
2023/05/26 09:30:38;;;;;;;16.20;3.90;;;;;;;-143.48;41.30;118439.88;5052063;28;20025;-36
2023/05/26 09:33:05;;;;;;;21.58;4.55;;;;;;;-143.48;42.43;118439.88;5051664;28;20051;-36
2023/05/26 09:35:39;;;;;;;19.23;4.53;;;;;;;-143.48;41.37;118439.88;5052734;28;20364;-35
2023/05/26 09:38:09;;;;;;;21.00;4.07;;;;;;;-143.48;41.14;118439.88;5052561;28;20431;-34
2023/05/26 09:40:39;;;;;;;19.27;4.00;;;;;;;-143.48;40.35;118439.88;5052914;28;20017;-37
2023/05/26 09:43:05;;;;;;;22.98;4.60;;;;;;;-143.48;39.61;118439.88;5053427;28;20445;-37
2023/05/26 09:45:38;;;;;;;20.30;3.88;;;;;;;-143.48;38.40;118439.88;5053248;28;20053;-36
2023/05/26 09:48:05;;;;;;;18.83;4.30;;;;;;;-143.48;39.43;118439.88;5035277;28;20095;-35
2023/05/26 09:50:35;;;;;;;16.15;4.30;;;;;;;-143.48;41.12;118439.88;5053534;28;20063;-35
2023/05/26 09:53:02;;;;;;;19.77;4.90;;;;;;;-143.48;40.73;118439.88;5053003;28;20071;-35
2023/05/26 09:55:28;;;;;;;20.33;4.38;;;;;;;-143.48;40.29;118439.88;5053032;28;20039;-36
2023/05/26 09:57:57;;;;;;;13.98;3.83;;;;;;;-143.48;40.35;118439.88;5053008;28;20033;-35
2023/05/26 10:00:25;;;;;;;18.88;4.78;;;;;;;-143.48;40.07;118439.88;5052837;28;20022;-34
2023/05/26 10:02:50;;;;;;;18.80;4.00;;;;;;;-143.48;40.89;118439.88;5053170;28;20029;-36
2023/05/26 10:05:16;;;;;;;18.00;4.45;;;;;;;-143.48;39.23;118439.88;5051654;28;20059;-35
2023/05/26 10:07:42;;;;;;;16.92;4.25;;;;;;;-143.48;39.33;118439.88;5050706;28;20200;-34
2023/05/26 10:10:11;;;;;;;19.15;4.30;;;;;;;-143.48;39.31;118439.88;5050743;28;20024;-37
2023/05/26 10:12:36;;;;;;;15.85;4.38;;;;;;;-143.48;40.69;118439.88;5050659;28;20067;-37
2023/05/26 10:15:03;;;;;;;18.27;4.05;;;;;;;-143.48;40.70;118439.88;5050678;28;20053;-36
2023/05/26 10:17:30;;;;;;;18.67;4.22;;;;;;;-143.48;42.67;118439.88;5050616;28;20051;-37
2023/05/26 10:19:57;;;;;;;17.98;4.32;;;;;;;-143.48;40.16;118439.88;5050590;28;20075;-35
2023/05/26 10:22:33;;;;;;;17.67;4.20;;;;;;;-143.48;37.82;118439.88;5050702;28;20028;-37
2023/05/26 10:25:25;;;;;;;19.83;3.83;;;;;;;-143.48;38.08;118439.88;5032792;28;20102;-37
2023/05/26 10:28:19;;;;;;;14.30;4.07;;;;;;;-143.48;39.39;118439.88;5044659;28;20101;-36
2023/05/26 10:30:45;;;;;;;26.48;4.95;;;;;;;-143.48;38.63;118439.88;5052880;28;20025;-34
2023/05/26 10:33:12;;;;;;;17.15;3.97;;;;;;;-143.48;39.38;118439.88;5052790;28;20086;-35
2023/05/26 10:35:51;;;;;;;18.10;3.80;;;;;;;-143.48;38.98;118439.88;5053158;28;20029;-35
2023/05/26 10:38:16;;;;;;;17.15;3.85;;;;;;;-143.48;39.17;118439.88;5053155;28;20032;-38
2023/05/26 10:40:50;;;;;;;19.45;3.95;;;;;;;-143.48;38.17;118439.88;5056475;28;20504;-37
2023/05/26 10:43:26;;;;;;;17.17;3.90;;;;;;;-143.48;37.64;118439.88;5056920;28;20032;-37
2023/05/26 10:45:53;;;;;;;17.10;4.03;;;;;;;-143.48;38.46;118439.88;5056416;28;20360;-36
2023/05/26 10:48:19;;;;;;;20.75;3.83;;;;;;;-143.48;37.99;118439.88;5038510;28;20032;-36
2023/05/26 10:50:59;;;;;;;17.38;3.45;;;;;;;-143.48;37.25;118439.88;5056447;28;20025;-35
2023/05/26 10:53:30;;;;;;;18.38;4.00;;;;;;;-143.48;37.65;118439.88;5056146;28;20070;-39
2023/05/26 10:56:03;;;;;;;16.88;3.83;;;;;;;-143.48;35.17;118439.88;5056021;28;20471;-36
2023/05/26 10:58:29;;;;;;;14.95;3.92;;;;;;;-143.48;36.07;118439.88;5038331;28;20033;-35
2023/05/26 11:00:58;;;;;;;16.85;3.53;;;;;;;-143.48;36.84;118439.88;5056017;28;20028;-36